createdAt,value
2023-04-22T00:00:23.387Z,53.83
2023-04-22T00:02:51.098Z,53.25
2023-04-22T00:05:21.212Z,53.35
2023-04-22T00:07:52.426Z,52.93
2023-04-22T00:10:20.195Z,52.96
2023-04-22T00:12:53.981Z,53.30
2023-04-22T00:15:25.643Z,52.64
2023-04-22T00:17:54.147Z,52.80
2023-04-22T00:20:24.586Z,52.86
2023-04-22T00:22:52.905Z,53.35
2023-04-22T00:25:34.537Z,53.37
2023-04-22T00:28:02.037Z,53.20
2023-04-22T00:30:30.406Z,53.29
2023-04-22T00:32:57.948Z,53.36
2023-04-22T00:35:26.175Z,53.47
2023-04-22T00:37:54.122Z,53.41
2023-04-22T00:40:24.698Z,53.09
2023-04-22T00:42:57.482Z,53.31
2023-04-22T00:45:27.587Z,53.12
2023-04-22T00:47:56.726Z,53.43
2023-04-22T00:50:28.063Z,53.54
2023-04-22T00:52:59.222Z,53.53
2023-04-22T00:55:40.393Z,53.53
2023-04-22T00:58:14.469Z,53.50
2023-04-22T01:00:41.926Z,53.88
2023-04-22T01:03:10.903Z,54.08
2023-04-22T01:05:39.532Z,54.21
2023-04-22T01:08:07.087Z,54.40
2023-04-22T01:10:37.889Z,54.84
2023-04-22T01:13:05.283Z,54.97
2023-04-22T01:15:33.234Z,55.13
2023-04-22T01:18:04.703Z,55.47
2023-04-22T01:20:32.119Z,55.12
2023-04-22T01:23:03.442Z,55.29
2023-04-22T01:25:30.870Z,55.21
2023-04-22T01:27:58.695Z,55.03
2023-04-22T01:30:36.694Z,55.03
2023-04-22T01:33:07.273Z,54.89
2023-04-22T01:35:37.384Z,55.04
2023-04-22T01:38:08.377Z,54.71
2023-04-22T01:40:35.805Z,54.52
2023-04-22T01:43:03.522Z,54.37
2023-04-22T01:45:33.863Z,53.96
2023-04-22T01:48:01.401Z,53.72
2023-04-22T01:50:31.760Z,53.39
2023-04-22T01:53:02.372Z,53.59
2023-04-22T01:55:36.368Z,53.41
2023-04-22T01:58:09.549Z,53.19
2023-04-22T02:00:50.127Z,53.13
2023-04-22T02:03:17.605Z,52.90
2023-04-22T02:05:45.419Z,52.81
2023-04-22T02:08:13.117Z,52.67
2023-04-22T02:10:40.790Z,52.53
2023-04-22T02:13:10.910Z,52.46
2023-04-22T02:15:41.539Z,52.35
2023-04-22T02:18:12.066Z,52.38
2023-04-22T02:20:49.809Z,52.23
2023-04-22T02:23:20.360Z,52.32
2023-04-22T02:25:53.774Z,52.33
2023-04-22T02:28:21.136Z,52.39
2023-04-22T02:30:48.488Z,52.25
2023-04-22T02:33:15.924Z,52.57
2023-04-22T02:35:43.259Z,52.15
2023-04-22T02:38:18.831Z,52.27
2023-04-22T02:40:49.375Z,52.07
2023-04-22T02:43:20.701Z,52.09
2023-04-22T02:45:48.550Z,52.37
2023-04-22T02:48:18.965Z,52.31
2023-04-22T02:50:46.634Z,52.61
2023-04-22T02:53:16.787Z,52.63
2023-04-22T02:55:44.052Z,52.31
2023-04-22T02:58:14.452Z,52.66
2023-04-22T03:00:41.651Z,52.79
2023-04-22T03:03:08.950Z,52.67
2023-04-22T03:05:36.134Z,52.82
2023-04-22T03:08:03.251Z,52.72
2023-04-22T03:10:31.039Z,52.82
2023-04-22T03:12:58.474Z,52.78
2023-04-22T03:15:26.354Z,52.78
2023-04-22T03:17:55.074Z,52.84
2023-04-22T03:20:23.802Z,52.63
2023-04-22T03:22:51.025Z,52.50
2023-04-22T03:25:18.190Z,52.55
2023-04-22T03:27:51.007Z,52.83
2023-04-22T03:30:19.251Z,52.77
2023-04-22T03:32:47.615Z,52.90
2023-04-22T03:35:25.040Z,52.84
2023-04-22T03:37:53.827Z,52.84
2023-04-22T03:40:31.440Z,52.97
2023-04-22T03:43:00.025Z,53.02
2023-04-22T03:45:27.388Z,53.20
2023-04-22T03:48:09.828Z,53.11
2023-04-22T03:50:42.641Z,53.08
2023-04-22T03:53:10.212Z,53.18
2023-04-22T03:55:38.605Z,53.18
2023-04-22T03:58:06.069Z,53.43
2023-04-22T04:00:33.692Z,53.26
2023-04-22T04:03:10.036Z,53.10
2023-04-22T04:05:37.922Z,53.43
2023-04-22T04:08:05.023Z,53.19
2023-04-22T04:10:32.352Z,53.56
2023-04-22T04:13:00.792Z,53.08
2023-04-22T04:15:32.875Z,52.90
2023-04-22T04:18:01.567Z,52.88
2023-04-22T04:20:31.767Z,52.70
2023-04-22T04:22:59.349Z,52.62
2023-04-22T04:25:26.839Z,52.44
2023-04-22T04:27:54.346Z,52.66
2023-04-22T04:30:22.135Z,52.75
2023-04-22T04:32:54.221Z,52.82
2023-04-22T04:35:21.740Z,52.83
2023-04-22T04:37:54.042Z,52.69
2023-04-22T04:40:22.168Z,52.41
2023-04-22T04:43:04.919Z,52.54
2023-04-22T04:45:38.055Z,52.49
2023-04-22T04:48:09.809Z,52.46
2023-04-22T04:50:44.597Z,52.34
2023-04-22T04:53:12.703Z,52.50
2023-04-22T04:55:42.665Z,52.46
2023-04-22T04:58:25.037Z,52.12
2023-04-22T05:01:06.778Z,52.39
2023-04-22T05:03:34.467Z,52.27
2023-04-22T05:06:01.875Z,52.09
2023-04-22T05:08:29.200Z,52.14
2023-04-22T05:11:03.687Z,52.21
2023-04-22T05:13:31.212Z,52.32
2023-04-22T05:15:59.983Z,52.24
2023-04-22T05:18:27.398Z,52.26
2023-04-22T05:20:55.728Z,52.14
2023-04-22T05:23:23.390Z,52.10
2023-04-22T05:25:53.768Z,52.14
2023-04-22T05:28:23.629Z,51.63
2023-04-22T05:30:55.101Z,51.43
2023-04-22T05:33:22.670Z,51.37
2023-04-22T05:35:52.489Z,51.24
2023-04-22T05:38:20.299Z,51.00
2023-04-22T05:40:47.380Z,50.65
2023-04-22T05:43:16.398Z,50.48
2023-04-22T05:45:50.425Z,50.23
2023-04-22T05:48:18.678Z,50.32
2023-04-22T05:50:57.057Z,50.29
2023-04-22T05:53:26.567Z,50.28
2023-04-22T05:55:54.259Z,50.42
2023-04-22T05:58:21.502Z,50.33
2023-04-22T06:00:57.511Z,50.46
2023-04-22T06:03:51.832Z,50.29
2023-04-22T06:06:19.489Z,50.41
2023-04-22T06:08:47.684Z,50.57
2023-04-22T06:11:14.944Z,50.65
2023-04-22T06:13:42.123Z,50.53
2023-04-22T06:16:10.718Z,50.47
2023-04-22T06:18:38.498Z,50.30
2023-04-22T06:21:10.954Z,50.35
2023-04-22T06:23:38.250Z,50.45
2023-04-22T06:26:05.705Z,50.41
2023-04-22T06:28:33.597Z,50.52
2023-04-22T06:31:05.680Z,50.24
2023-04-22T06:33:32.870Z,50.06
2023-04-22T06:36:01.669Z,50.36
2023-04-22T06:38:31.358Z,49.83
2023-04-22T06:41:23.670Z,49.66
2023-04-22T06:43:52.968Z,49.36
2023-04-22T06:46:39.168Z,48.95
2023-04-22T06:49:26.422Z,48.32
2023-04-22T06:52:24.107Z,48.39
2023-04-22T06:54:54.326Z,48.71
2023-04-22T06:57:21.510Z,48.19
2023-04-22T06:59:53.987Z,48.35
2023-04-22T07:02:22.199Z,48.50
2023-04-22T07:04:52.513Z,48.26
2023-04-22T07:07:20.101Z,48.12
2023-04-22T07:09:51.354Z,47.88
2023-04-22T07:12:21.160Z,47.78
2023-04-22T07:14:50.003Z,48.26
2023-04-22T07:17:19.813Z,48.10
2023-04-22T07:19:47.161Z,48.60
2023-04-22T07:22:14.509Z,48.04
2023-04-22T07:24:45.954Z,48.08
2023-04-22T07:27:19.366Z,48.34
2023-04-22T07:29:46.731Z,48.29
2023-04-22T07:32:16.893Z,48.33
2023-04-22T07:34:56.283Z,47.92
2023-04-22T07:37:56.874Z,48.15
2023-04-22T07:40:46.864Z,48.32
2023-04-22T07:43:27.191Z,47.64
2023-04-22T07:46:00.720Z,48.40
2023-04-22T07:48:31.513Z,48.57
2023-04-22T07:51:10.618Z,47.94
2023-04-22T07:53:42.194Z,47.98
2023-04-22T07:56:15.384Z,47.70
2023-04-22T07:58:45.816Z,48.20
2023-04-22T08:01:18.720Z,47.71
2023-04-22T08:03:53.362Z,47.64
2023-04-22T08:06:23.656Z,47.38
2023-04-22T08:08:53.928Z,47.08
2023-04-22T08:11:32.802Z,46.85
2023-04-22T08:14:09.859Z,46.28
2023-04-22T08:16:41.911Z,46.39
2023-04-22T08:19:12.939Z,46.42
2023-04-22T08:21:47.743Z,47.33
2023-04-22T08:24:29.293Z,48.14
2023-04-22T08:27:04.812Z,47.61
2023-04-22T08:29:44.259Z,47.63
2023-04-22T08:32:43.115Z,48.72
2023-04-22T08:35:21.714Z,47.30
2023-04-22T08:38:05.976Z,46.53
2023-04-22T08:40:50.037Z,46.75
2023-04-22T08:43:36.926Z,46.07
2023-04-22T08:47:04.139Z,45.73
2023-04-22T08:49:39.905Z,45.11
2023-04-22T08:53:02.775Z,43.92
2023-04-22T08:55:50.898Z,43.76
2023-04-22T08:58:26.342Z,43.16
2023-04-22T09:01:17.294Z,43.87
2023-04-22T09:03:55.753Z,43.25
2023-04-22T09:06:39.226Z,43.89
2023-04-22T09:12:32.677Z,43.62
2023-04-22T09:15:14.095Z,43.29
2023-04-22T09:17:52.895Z,44.34
2023-04-22T09:20:51.682Z,45.31
2023-04-22T09:23:32.025Z,44.91
2023-04-22T09:26:11.821Z,44.39
2023-04-22T09:29:01.262Z,44.38
2023-04-22T09:31:36.800Z,45.11
2023-04-22T09:34:14.108Z,44.63
2023-04-22T09:37:08.535Z,43.78
2023-04-22T09:40:14.886Z,44.40
2023-04-22T09:43:01.545Z,44.98
2023-04-22T09:45:53.278Z,44.99
2023-04-22T09:48:47.644Z,44.54
2023-04-22T09:51:19.967Z,44.28
2023-04-22T09:54:24.250Z,44.79
2023-04-22T09:57:13.310Z,45.29
2023-04-22T10:00:00.559Z,45.63
2023-04-22T10:02:37.791Z,44.18
2023-04-22T10:05:12.543Z,44.37
2023-04-22T10:07:55.271Z,44.79
2023-04-22T10:13:23.607Z,44.67
2023-04-22T10:16:09.486Z,44.76
2023-04-22T10:18:48.284Z,44.14
2023-04-22T10:21:29.545Z,44.55
2023-04-22T10:24:12.958Z,45.08
2023-04-22T10:26:52.087Z,44.23
2023-04-22T10:29:28.253Z,44.18
2023-04-22T10:32:12.914Z,44.42
2023-04-22T10:34:44.486Z,44.95
2023-04-22T10:37:18.482Z,44.08
2023-04-22T10:40:31.621Z,44.66
2023-04-22T10:43:16.496Z,43.63
2023-04-22T10:45:59.688Z,43.11
2023-04-22T10:49:08.835Z,43.59
2023-04-22T10:51:48.196Z,45.01
2023-04-22T10:54:50.264Z,44.22
2023-04-22T10:57:24.995Z,44.63
2023-04-22T11:03:33.604Z,44.87
2023-04-22T11:06:29.760Z,44.92
2023-04-22T11:09:27.310Z,45.61
2023-04-22T11:12:32.091Z,46.11
2023-04-22T11:15:25.073Z,45.72
2023-04-22T11:18:02.677Z,44.59
2023-04-22T11:20:44.516Z,44.43
2023-04-22T11:23:33.236Z,42.97
2023-04-22T11:26:13.043Z,44.16
2023-04-22T11:28:57.027Z,43.53
2023-04-22T11:31:52.950Z,44.82
2023-04-22T11:34:32.584Z,43.71
2023-04-22T11:37:07.858Z,43.55
2023-04-22T11:39:44.377Z,44.69
2023-04-22T11:42:24.148Z,44.62
2023-04-22T11:45:00.660Z,44.07
2023-04-22T11:47:37.678Z,44.64
2023-04-22T11:50:38.515Z,43.78
2023-04-22T11:53:26.191Z,44.88
2023-04-22T11:56:06.831Z,45.40
2023-04-22T11:58:59.408Z,46.19
2023-04-22T12:01:51.711Z,46.31
2023-04-22T12:04:29.376Z,45.69
2023-04-22T12:07:22.361Z,44.41
2023-04-22T12:10:15.826Z,43.99
2023-04-22T12:12:44.590Z,43.27
2023-04-22T12:15:18.903Z,42.69
2023-04-22T12:18:14.808Z,41.07
2023-04-22T12:21:03.401Z,42.17
2023-04-22T12:26:33.371Z,42.43
2023-04-22T12:29:10.718Z,42.64
2023-04-22T12:31:39.655Z,44.09
2023-04-22T12:34:07.759Z,43.98
2023-04-22T12:36:41.233Z,44.27
2023-04-22T12:39:26.725Z,43.65
2023-04-22T12:42:00.044Z,44.92
2023-04-22T12:44:27.738Z,45.74
2023-04-22T12:46:58.514Z,45.15
2023-04-22T12:49:28.653Z,46.01
2023-04-22T12:51:59.600Z,45.40
2023-04-22T12:54:28.721Z,45.56
2023-04-22T12:57:02.517Z,46.07
2023-04-22T12:59:41.867Z,44.98
2023-04-22T13:02:20.176Z,45.59
2023-04-22T13:04:47.589Z,44.71
2023-04-22T13:07:15.252Z,44.99
2023-04-22T13:09:52.082Z,44.26
2023-04-22T13:12:32.178Z,43.92
2023-04-22T13:14:59.722Z,43.18
2023-04-22T13:17:29.940Z,42.66
2023-04-22T13:19:57.604Z,41.28
2023-04-22T13:22:24.784Z,41.33
2023-04-22T13:24:52.464Z,42.39
2023-04-22T13:27:22.066Z,42.34
2023-04-22T13:29:49.459Z,42.54
2023-04-22T13:32:22.716Z,42.30
2023-04-22T13:34:53.516Z,41.00
2023-04-22T13:37:24.904Z,42.49
2023-04-22T13:39:57.306Z,43.20
2023-04-22T13:42:24.742Z,42.10
2023-04-22T13:44:54.112Z,42.06
2023-04-22T13:47:21.532Z,42.06
2023-04-22T13:49:49.260Z,43.51
2023-04-22T13:52:18.820Z,44.44
2023-04-22T13:54:48.810Z,44.25
2023-04-22T13:57:16.196Z,45.63
2023-04-22T13:59:43.278Z,46.62
2023-04-22T14:02:18.320Z,46.78
2023-04-22T14:04:45.839Z,46.32
2023-04-22T14:07:13.994Z,45.29
2023-04-22T14:09:44.247Z,43.94
2023-04-22T14:12:12.345Z,44.52
2023-04-22T14:14:39.912Z,43.26
2023-04-22T14:17:07.489Z,42.96
2023-04-22T14:19:36.695Z,43.81
2023-04-22T14:22:13.025Z,44.22
2023-04-22T14:24:43.130Z,44.15
2023-04-22T14:27:12.582Z,44.15
2023-04-22T14:29:44.044Z,44.94
2023-04-22T14:32:13.300Z,44.90
2023-04-22T14:34:40.888Z,44.43
2023-04-22T14:37:11.187Z,44.88
2023-04-22T14:39:38.991Z,44.26
2023-04-22T14:42:06.510Z,44.39
2023-04-22T14:44:33.701Z,45.23
2023-04-22T14:47:01.012Z,45.07
2023-04-22T14:49:28.286Z,44.14
2023-04-22T14:52:01.075Z,44.71
2023-04-22T14:54:28.629Z,44.54
2023-04-22T14:56:56.627Z,45.16
2023-04-22T14:59:27.159Z,44.94
2023-04-22T15:01:58.168Z,44.12
2023-04-22T15:04:26.880Z,44.62
2023-04-22T15:06:57.685Z,44.24
2023-04-22T15:09:24.962Z,43.35
2023-04-22T15:11:54.991Z,43.21
2023-04-22T15:14:22.527Z,43.16
2023-04-22T15:16:49.852Z,44.60
2023-04-22T15:19:17.112Z,43.70
2023-04-22T15:21:44.261Z,44.79
2023-04-22T15:24:11.444Z,46.19
2023-04-22T15:26:41.025Z,47.94
2023-04-22T15:29:08.416Z,47.89
2023-04-22T15:31:35.521Z,48.48
2023-04-22T15:34:02.718Z,48.54
2023-04-22T15:36:31.732Z,49.86
2023-04-22T15:38:59.768Z,50.41
2023-04-22T15:41:30.522Z,51.01
2023-04-22T15:43:57.807Z,49.85
2023-04-22T15:46:33.353Z,50.35
2023-04-22T15:49:00.900Z,50.18
2023-04-22T15:51:29.225Z,48.91
2023-04-22T15:54:02.949Z,49.84
2023-04-22T15:56:30.308Z,49.74
2023-04-22T15:58:57.599Z,50.44
2023-04-22T16:01:25.120Z,50.31
2023-04-22T16:03:52.828Z,50.67
2023-04-22T16:06:20.470Z,50.47
2023-04-22T16:08:47.862Z,49.89
2023-04-22T16:11:15.867Z,51.04
2023-04-22T16:13:43.730Z,52.38
2023-04-22T16:16:11.521Z,52.19
2023-04-22T16:18:40.021Z,50.94
2023-04-22T16:21:11.280Z,51.74
2023-04-22T16:23:41.611Z,52.67
2023-04-22T16:26:09.409Z,52.26
2023-04-22T16:28:36.602Z,51.87
2023-04-22T16:31:04.237Z,52.09
2023-04-22T16:33:33.950Z,54.55
2023-04-22T16:36:01.430Z,54.28
2023-04-22T16:38:28.722Z,53.99
2023-04-22T16:40:56.360Z,53.02
2023-04-22T16:43:24.286Z,54.22
2023-04-22T16:45:51.623Z,54.57
2023-04-22T16:48:19.400Z,55.69
2023-04-22T16:50:46.871Z,54.95
2023-04-22T16:53:14.323Z,54.62
2023-04-22T16:55:41.671Z,53.92
2023-04-22T16:58:09.216Z,53.57
2023-04-22T17:00:37.064Z,53.72
2023-04-22T17:03:05.527Z,53.50
2023-04-22T17:05:33.309Z,53.33
2023-04-22T17:08:00.754Z,52.88
2023-04-22T17:10:28.940Z,52.65
2023-04-22T17:12:56.325Z,52.78
2023-04-22T17:15:23.650Z,52.28
2023-04-22T17:17:52.001Z,53.45
2023-04-22T17:20:19.605Z,54.05
2023-04-22T17:22:49.306Z,54.18
2023-04-22T17:25:16.563Z,55.32
2023-04-22T17:27:43.801Z,55.16
2023-04-22T17:30:11.479Z,54.18
2023-04-22T17:32:38.683Z,54.40
2023-04-22T17:35:09.472Z,53.25
2023-04-22T17:37:36.980Z,52.84
2023-04-22T17:40:07.451Z,52.61
2023-04-22T17:42:45.899Z,53.30
2023-04-22T17:45:15.871Z,54.75
2023-04-22T17:47:43.614Z,53.90
2023-04-22T17:50:11.416Z,53.92
2023-04-22T17:52:40.416Z,54.63
2023-04-22T17:55:08.393Z,54.25
2023-04-22T17:57:35.761Z,52.83
2023-04-22T18:00:04.009Z,54.18
2023-04-22T18:02:35.372Z,55.19
2023-04-22T18:05:03.421Z,54.50
2023-04-22T18:07:30.771Z,54.79
2023-04-22T18:09:58.096Z,54.23
2023-04-22T18:12:30.366Z,56.37
2023-04-22T18:14:58.629Z,55.49
2023-04-22T18:17:26.140Z,55.18
2023-04-22T18:20:09.713Z,57.00
2023-04-22T18:22:44.502Z,57.88
2023-04-22T18:25:11.666Z,58.77
2023-04-22T18:27:42.698Z,58.08
2023-04-22T18:30:13.145Z,56.78
2023-04-22T18:32:40.756Z,58.47
2023-04-22T18:35:08.699Z,58.97
2023-04-22T18:37:36.211Z,57.52
2023-04-22T18:40:05.468Z,56.61
2023-04-22T18:42:32.850Z,58.91
2023-04-22T18:45:01.940Z,57.86
2023-04-22T18:47:33.370Z,57.57
2023-04-22T18:50:05.415Z,58.45
2023-04-22T18:52:33.342Z,57.53
2023-04-22T18:55:06.784Z,58.11
2023-04-22T18:57:43.995Z,57.63
2023-04-22T19:00:13.453Z,57.08
2023-04-22T19:02:42.346Z,56.30
2023-04-22T19:05:10.271Z,56.79
2023-04-22T19:07:38.532Z,57.13
2023-04-22T19:10:07.089Z,56.96
2023-04-22T19:12:34.657Z,56.73
2023-04-22T19:15:02.196Z,59.22
2023-04-22T19:17:29.336Z,58.33
2023-04-22T19:19:56.580Z,59.79
2023-04-22T19:22:24.136Z,58.51
2023-04-22T19:24:51.491Z,61.19
2023-04-22T19:27:19.109Z,60.66
2023-04-22T19:29:51.513Z,60.95
2023-04-22T19:32:19.604Z,59.05
2023-04-22T19:34:47.621Z,58.07
2023-04-22T19:37:14.828Z,59.19
2023-04-22T19:39:44.278Z,59.17
2023-04-22T19:42:11.766Z,58.30
2023-04-22T19:44:41.376Z,58.05
2023-04-22T19:47:08.785Z,58.19
2023-04-22T19:49:36.157Z,59.16
2023-04-22T19:52:09.663Z,58.31
2023-04-22T19:54:38.746Z,59.31
2023-04-22T19:57:07.006Z,59.53
2023-04-22T19:59:34.779Z,58.03
2023-04-22T20:02:02.080Z,58.33
2023-04-22T20:04:36.719Z,59.22
2023-04-22T20:07:07.848Z,59.90
2023-04-22T20:09:36.597Z,59.32
2023-04-22T20:12:05.136Z,57.90
2023-04-22T20:14:33.237Z,58.35
2023-04-22T20:17:00.593Z,59.28
2023-04-22T20:19:28.577Z,58.87
2023-04-22T20:21:57.500Z,57.08
2023-04-22T20:24:29.632Z,56.62
2023-04-22T20:27:00.272Z,55.64
2023-04-22T20:29:27.669Z,55.69
2023-04-22T20:31:55.870Z,54.87
2023-04-22T20:34:23.321Z,54.97
2023-04-22T20:36:53.873Z,54.71
2023-04-22T20:39:22.568Z,54.31
2023-04-22T20:41:54.300Z,54.18
2023-04-22T20:44:21.481Z,53.51
2023-04-22T20:46:48.963Z,53.91
2023-04-22T20:49:17.589Z,53.70
2023-04-22T20:51:44.714Z,53.68
2023-04-22T20:54:27.781Z,53.47
2023-04-22T20:56:57.954Z,53.08
2023-04-22T20:59:25.145Z,52.64
2023-04-22T21:01:54.736Z,52.74
2023-04-22T21:04:24.195Z,52.77
2023-04-22T21:06:52.680Z,52.54
2023-04-22T21:09:27.302Z,52.41
2023-04-22T21:11:57.590Z,52.26
2023-04-22T21:14:27.085Z,52.22
2023-04-22T21:17:01.778Z,52.11
2023-04-22T21:19:35.493Z,51.96
2023-04-22T21:22:06.775Z,52.48
2023-04-22T21:24:35.259Z,52.38
2023-04-22T21:27:03.125Z,52.21
2023-04-22T21:29:30.690Z,52.46
2023-04-22T21:32:07.365Z,52.61
2023-04-22T21:34:36.307Z,52.34
2023-04-22T21:37:04.736Z,52.22
2023-04-22T21:39:31.992Z,52.00
2023-04-22T21:41:59.189Z,51.89
2023-04-22T21:44:27.121Z,52.05
2023-04-22T21:46:54.516Z,51.89
2023-04-22T21:49:30.528Z,52.30
2023-04-22T21:51:57.718Z,52.15
2023-04-22T21:54:24.848Z,52.12
2023-04-22T21:56:51.977Z,52.92
2023-04-22T21:59:19.232Z,53.14
2023-04-22T22:01:46.926Z,53.17
2023-04-22T22:04:15.947Z,53.26
2023-04-22T22:06:45.436Z,53.01
2023-04-22T22:09:13.990Z,53.31
2023-04-22T22:11:41.266Z,53.18
2023-04-22T22:14:08.671Z,53.88
2023-04-22T22:16:36.024Z,54.86
2023-04-22T22:19:04.829Z,54.10
2023-04-22T22:21:33.155Z,54.99
2023-04-22T22:24:00.494Z,55.50
2023-04-22T22:26:28.128Z,55.72
2023-04-22T22:28:55.673Z,55.45
2023-04-22T22:31:22.871Z,55.96
2023-04-22T22:33:50.072Z,55.89
2023-04-22T22:36:17.553Z,55.71
2023-04-22T22:38:44.696Z,55.76
2023-04-22T22:41:12.005Z,56.02
2023-04-22T22:43:40.602Z,56.26
2023-04-22T22:46:08.045Z,55.67
2023-04-22T22:48:38.001Z,56.07
2023-04-22T22:51:05.162Z,56.27
2023-04-22T22:53:34.501Z,55.72
2023-04-22T22:56:01.650Z,55.75
2023-04-22T22:58:28.749Z,56.17
2023-04-22T23:00:56.382Z,56.13
2023-04-22T23:03:23.620Z,55.62
2023-04-22T23:05:54.054Z,56.04
2023-04-22T23:08:21.208Z,56.05
2023-04-22T23:10:48.167Z,55.95
2023-04-22T23:13:15.296Z,56.37
2023-04-22T23:15:42.787Z,56.37
2023-04-22T23:18:10.225Z,56.60
2023-04-22T23:20:37.669Z,56.51
2023-04-22T23:23:05.301Z,56.62
2023-04-22T23:25:32.843Z,57.23
2023-04-22T23:28:00.858Z,56.63
2023-04-22T23:30:28.318Z,56.92
2023-04-22T23:32:59.858Z,57.29
2023-04-22T23:35:27.632Z,56.93
2023-04-22T23:37:55.195Z,57.01
2023-04-22T23:40:25.627Z,56.72
2023-04-22T23:42:53.582Z,56.80
2023-04-22T23:45:20.786Z,56.94
2023-04-22T23:47:48.085Z,57.05
2023-04-22T23:50:16.133Z,57.58
2023-04-22T23:52:43.392Z,57.51
2023-04-22T23:55:11.865Z,57.61
2023-04-22T23:57:39.390Z,58.29
